createdAt,value
2016-07-15T00:02:54.339Z,0
2016-07-15T00:06:07.452Z,0
2016-07-15T00:09:20.509Z,0
2016-07-15T00:12:33.584Z,0
2016-07-15T00:15:52.851Z,0
2016-07-15T00:18:55.192Z,0
2016-07-15T00:22:08.312Z,0
2016-07-15T00:25:21.559Z,0
2016-07-15T00:28:34.363Z,0
2016-07-15T00:31:53.164Z,0
2016-07-15T00:34:55.366Z,0
2016-07-15T00:38:08.368Z,0
2016-07-15T00:41:21.265Z,0
2016-07-15T00:44:33.891Z,0
2016-07-15T00:47:51.997Z,0
2016-07-15T00:50:54.218Z,0
2016-07-15T00:54:07.351Z,0
2016-07-15T00:57:20.466Z,0
2016-07-15T01:00:33.652Z,0
2016-07-15T01:03:52.589Z,0
2016-07-15T01:06:54.746Z,0
2016-07-15T01:10:07.717Z,0
2016-07-15T01:13:20.555Z,0
2016-07-15T01:16:33.611Z,0
2016-07-15T01:19:52.414Z,0
2016-07-15T01:22:54.715Z,0
2016-07-15T01:26:07.955Z,0
2016-07-15T01:29:20.980Z,0
2016-07-15T01:32:33.780Z,0
2016-07-15T01:35:52.706Z,0
2016-07-15T01:38:54.826Z,0
2016-07-15T01:42:08.109Z,0
2016-07-15T01:45:21.363Z,0
2016-07-15T01:48:34.260Z,0
2016-07-15T01:51:53.419Z,0
2016-07-15T01:54:55.495Z,0
2016-07-15T01:58:08.687Z,0
2016-07-15T02:01:21.745Z,0
2016-07-15T02:04:34.655Z,0
2016-07-15T02:07:53.723Z,0
2016-07-15T02:10:55.968Z,0
2016-07-15T02:14:09.075Z,0
2016-07-15T02:17:22.132Z,0
2016-07-15T02:20:35.373Z,0
2016-07-15T02:23:54.658Z,0
2016-07-15T02:26:56.886Z,0
2016-07-15T02:30:09.399Z,0
2016-07-15T02:33:22.158Z,0
2016-07-15T02:36:35.155Z,1
2016-07-15T02:39:54.128Z,1
2016-07-15T02:42:56.380Z,1
2016-07-15T02:46:09.169Z,3
2016-07-15T02:49:22.180Z,5
2016-07-15T02:52:35.196Z,7
2016-07-15T02:55:54.347Z,12
2016-07-15T02:58:56.535Z,15
2016-07-15T03:02:09.464Z,12
2016-07-15T03:05:22.213Z,18
2016-07-15T03:08:35.356Z,19
2016-07-15T03:11:54.408Z,24
2016-07-15T03:14:56.403Z,27
2016-07-15T03:18:09.512Z,29
2016-07-15T03:21:22.503Z,38
2016-07-15T03:24:35.654Z,41
2016-07-15T03:27:54.674Z,62
2016-07-15T03:30:56.817Z,69
2016-07-15T03:34:09.584Z,86
2016-07-15T03:37:22.577Z,84
2016-07-15T03:40:35.381Z,102
2016-07-15T03:43:54.484Z,128
2016-07-15T03:46:56.519Z,146
2016-07-15T03:50:09.432Z,160
2016-07-15T03:53:22.624Z,191
2016-07-15T03:56:35.507Z,237
2016-07-15T03:59:54.499Z,258
2016-07-15T04:02:56.558Z,260
2016-07-15T04:06:09.460Z,350
2016-07-15T04:09:22.410Z,360
2016-07-15T04:12:35.445Z,466
2016-07-15T04:15:54.610Z,496
2016-07-15T04:18:56.924Z,569
2016-07-15T04:22:09.709Z,513
2016-07-15T04:25:22.720Z,668
2016-07-15T04:28:33.530Z,608
2016-07-15T04:31:52.506Z,321
2016-07-15T04:34:54.686Z,512
2016-07-15T04:38:07.783Z,500
2016-07-15T04:41:21.168Z,519
2016-07-15T04:44:34.394Z,625
2016-07-15T04:47:53.446Z,599
2016-07-15T04:50:55.862Z,679
2016-07-15T04:54:08.635Z,331
2016-07-15T04:57:21.551Z,364
2016-07-15T05:00:34.735Z,661
2016-07-15T05:03:53.623Z,640
2016-07-15T05:06:55.833Z,858
2016-07-15T05:10:08.774Z,1003
2016-07-15T05:13:21.684Z,817
2016-07-15T05:16:34.723Z,964
2016-07-15T05:19:54.229Z,484
2016-07-15T05:22:56.536Z,613
2016-07-15T05:26:09.484Z,856
2016-07-15T05:29:22.696Z,1033
2016-07-15T05:32:35.992Z,1145
2016-07-15T05:35:55.064Z,1021
2016-07-15T05:38:57.412Z,1411
2016-07-15T05:42:10.495Z,1221
2016-07-15T05:45:23.730Z,1052
2016-07-15T05:48:36.616Z,775
2016-07-15T05:51:55.581Z,921
2016-07-15T05:54:58.127Z,1126
2016-07-15T05:58:10.979Z,859
2016-07-15T06:01:24.068Z,786
2016-07-15T06:04:37.272Z,890
2016-07-15T06:07:50.436Z,1477
2016-07-15T06:11:03.611Z,1300
2016-07-15T06:14:16.761Z,883
2016-07-15T06:17:29.743Z,1041
2016-07-15T06:20:49.065Z,1270
2016-07-15T06:23:51.376Z,884
2016-07-15T06:27:04.668Z,745
2016-07-15T06:30:17.897Z,960
2016-07-15T06:33:30.981Z,732
2016-07-15T06:36:47.000Z,882
2016-07-15T06:39:55.404Z,302
2016-07-15T06:42:57.602Z,1002
2016-07-15T06:46:11.002Z,1364
2016-07-15T06:49:24.345Z,2913
2016-07-15T06:52:37.421Z,2957
2016-07-15T06:55:50.850Z,1910
2016-07-15T06:59:04.039Z,1533
2016-07-15T07:02:17.460Z,11511
2016-07-15T07:05:30.663Z,1332
2016-07-15T07:08:49.841Z,1127
2016-07-15T07:11:52.216Z,3696
2016-07-15T07:15:05.594Z,1590
2016-07-15T07:18:18.723Z,7375
2016-07-15T07:21:31.938Z,6888
2016-07-15T07:24:52.479Z,4046
2016-07-15T07:27:53.976Z,5341
2016-07-15T07:31:07.040Z,4146
2016-07-15T07:34:20.600Z,4746
2016-07-15T07:37:34.068Z,7190
2016-07-15T07:40:53.626Z,5095
2016-07-15T07:43:56.350Z,4274
2016-07-15T07:47:09.887Z,2250
2016-07-15T07:50:23.111Z,1800
2016-07-15T07:53:36.371Z,1177
2016-07-15T07:56:55.799Z,766
2016-07-15T07:59:58.282Z,620
2016-07-15T08:03:11.428Z,432
2016-07-15T08:06:24.782Z,455
2016-07-15T08:09:38.062Z,1066
2016-07-15T08:12:51.125Z,1600
2016-07-15T08:16:04.409Z,2701
2016-07-15T08:19:17.759Z,2182
2016-07-15T08:22:31.182Z,1134
2016-07-15T08:25:50.564Z,2107
2016-07-15T08:28:53.065Z,821
2016-07-15T08:32:06.503Z,3373
2016-07-15T08:35:19.895Z,3851
2016-07-15T08:38:33.400Z,2707
2016-07-15T08:41:50.929Z,1914
2016-07-15T08:44:53.453Z,2158
2016-07-15T08:48:06.584Z,2703
2016-07-15T08:51:19.844Z,888
2016-07-15T08:54:33.243Z,1057
2016-07-15T08:57:52.813Z,1124
2016-07-15T09:00:55.166Z,1261
2016-07-15T09:04:08.530Z,1306
2016-07-15T09:07:21.963Z,1978
2016-07-15T09:10:35.178Z,1692
2016-07-15T09:13:54.536Z,1076
2016-07-15T09:16:57.155Z,813
2016-07-15T09:20:10.407Z,653
2016-07-15T09:23:23.513Z,755
2016-07-15T09:26:36.933Z,1017
2016-07-15T09:29:56.305Z,887
2016-07-15T09:32:58.809Z,1005
2016-07-15T09:36:11.767Z,952
2016-07-15T09:39:25.051Z,1206
2016-07-15T09:42:38.560Z,1717
2016-07-15T09:45:51.561Z,2462
2016-07-15T09:49:01.841Z,4088
2016-07-15T09:52:15.121Z,4423
2016-07-15T09:55:28.447Z,3275
2016-07-15T09:58:47.609Z,1304
2016-07-15T10:01:56.214Z,1101
2016-07-15T10:04:58.699Z,985
2016-07-15T10:08:11.812Z,1136
2016-07-15T10:11:24.961Z,953
2016-07-15T10:14:38.566Z,731
2016-07-15T10:17:50.977Z,487
2016-07-15T10:21:04.323Z,512
2016-07-15T10:24:17.655Z,605
2016-07-15T10:27:30.929Z,497
2016-07-15T10:30:50.077Z,676
2016-07-15T10:33:52.581Z,720
2016-07-15T10:37:05.907Z,835
2016-07-15T10:40:19.225Z,759
2016-07-15T10:43:32.672Z,713
2016-07-15T10:46:51.920Z,789
2016-07-15T10:49:54.516Z,646
2016-07-15T10:53:07.793Z,525
2016-07-15T10:56:21.344Z,471
2016-07-15T10:59:34.539Z,592
2016-07-15T11:02:54.022Z,769
2016-07-15T11:05:56.492Z,867
2016-07-15T11:09:08.204Z,983
2016-07-15T11:12:21.599Z,1006
2016-07-15T11:15:34.843Z,1034
2016-07-15T11:18:53.518Z,1200
2016-07-15T11:21:55.882Z,1108
2016-07-15T11:25:09.236Z,1419
2016-07-15T11:28:22.573Z,2245
2016-07-15T11:31:36.111Z,2264
2016-07-15T11:34:55.753Z,1270
2016-07-15T11:37:58.284Z,1074
2016-07-15T11:41:11.699Z,1154
2016-07-15T11:44:25.198Z,1603
2016-07-15T11:47:38.425Z,2153
2016-07-15T11:50:52.151Z,3197
2016-07-15T11:54:05.597Z,4657
2016-07-15T11:57:19.213Z,4531
2016-07-15T12:00:32.939Z,2164
2016-07-15T12:03:52.362Z,1368
2016-07-15T12:06:54.982Z,1119
2016-07-15T12:10:08.596Z,821
2016-07-15T12:13:19.967Z,1625
2016-07-15T12:16:33.321Z,1358
2016-07-15T12:19:52.209Z,1886
2016-07-15T12:22:54.678Z,1599
2016-07-15T12:26:08.118Z,1663
2016-07-15T12:29:21.532Z,2670
2016-07-15T12:32:34.902Z,3346
2016-07-15T12:35:54.156Z,3719
2016-07-15T12:38:56.934Z,3678
2016-07-15T12:42:10.551Z,3304
2016-07-15T12:45:24.025Z,3217
2016-07-15T12:48:37.645Z,3229
2016-07-15T12:51:51.231Z,3044
2016-07-15T12:55:04.801Z,4188
2016-07-15T12:58:18.382Z,3682
2016-07-15T13:01:31.689Z,2902
2016-07-15T13:04:51.043Z,2946
2016-07-15T13:07:53.600Z,3083
2016-07-15T13:11:07.176Z,2880
2016-07-15T13:14:20.780Z,2628
2016-07-15T13:17:34.394Z,2425
2016-07-15T13:20:54.028Z,2080
2016-07-15T13:23:56.635Z,2924
2016-07-15T13:27:10.055Z,2612
2016-07-15T13:30:23.424Z,3547
2016-07-15T13:33:36.964Z,3259
2016-07-15T13:36:56.394Z,3349
2016-07-15T13:39:59.089Z,3352
2016-07-15T13:43:12.828Z,2394
2016-07-15T13:46:26.465Z,894
2016-07-15T13:49:40.056Z,1380
2016-07-15T13:52:53.274Z,2657
2016-07-15T13:56:06.899Z,2975
2016-07-15T13:59:20.735Z,2917
2016-07-15T14:02:34.221Z,2212
2016-07-15T14:05:53.519Z,1833
2016-07-15T14:08:56.140Z,1083
2016-07-15T14:12:09.688Z,949
2016-07-15T14:15:22.880Z,299
2016-07-15T14:18:36.347Z,566
2016-07-15T14:21:55.769Z,799
2016-07-15T14:24:58.258Z,948
2016-07-15T14:28:11.492Z,1470
2016-07-15T14:31:24.992Z,1603
2016-07-15T14:34:38.536Z,1943
2016-07-15T14:37:52.173Z,2438
2016-07-15T14:41:05.813Z,2283
2016-07-15T14:44:19.457Z,2088
2016-07-15T14:47:33.061Z,2471
2016-07-15T14:50:52.201Z,2268
2016-07-15T14:53:54.937Z,2278
2016-07-15T14:57:08.724Z,1876
2016-07-15T15:00:22.460Z,1552
2016-07-15T15:03:36.014Z,2046
2016-07-15T15:06:55.545Z,1920
2016-07-15T15:09:58.269Z,1978
2016-07-15T15:13:12.054Z,1792
2016-07-15T15:16:25.552Z,1130
2016-07-15T15:19:39.142Z,1484
2016-07-15T15:22:52.459Z,1951
2016-07-15T15:26:05.488Z,1978
2016-07-15T15:29:19.061Z,2013
2016-07-15T15:32:32.629Z,1926
2016-07-15T15:35:52.295Z,1833
2016-07-15T15:38:55.129Z,1761
2016-07-15T15:42:08.606Z,1841
2016-07-15T15:45:22.065Z,1244
2016-07-15T15:48:35.556Z,1360
2016-07-15T15:51:55.276Z,1547
2016-07-15T15:54:58.207Z,1520
2016-07-15T15:58:12.152Z,1383
2016-07-15T16:01:25.705Z,1330
2016-07-15T16:04:39.500Z,1139
2016-07-15T16:07:53.438Z,837
2016-07-15T16:11:06.659Z,608
2016-07-15T16:14:20.164Z,562
2016-07-15T16:17:33.853Z,558
2016-07-15T16:20:53.683Z,628
2016-07-15T16:23:56.369Z,749
2016-07-15T16:27:10.125Z,881
2016-07-15T16:30:23.855Z,1115
2016-07-15T16:33:37.537Z,1155
2016-07-15T16:36:51.210Z,1057
2016-07-15T16:40:05.071Z,1096
2016-07-15T16:43:18.487Z,1102
2016-07-15T16:46:31.927Z,821
2016-07-15T16:49:51.504Z,1009
2016-07-15T16:52:54.126Z,926
2016-07-15T16:56:07.648Z,944
2016-07-15T16:59:21.123Z,845
2016-07-15T17:02:34.710Z,761
2016-07-15T17:05:54.290Z,698
2016-07-15T17:08:56.939Z,619
2016-07-15T17:12:09.687Z,604
2016-07-15T17:15:23.065Z,482
2016-07-15T17:18:36.492Z,459
2016-07-15T17:21:55.828Z,404
2016-07-15T17:24:58.474Z,381
2016-07-15T17:28:11.942Z,392
2016-07-15T17:31:25.425Z,357
2016-07-15T17:34:38.815Z,318
2016-07-15T17:37:52.845Z,326
2016-07-15T17:41:06.003Z,312
2016-07-15T17:44:19.412Z,334
2016-07-15T17:47:32.966Z,382
2016-07-15T17:50:52.489Z,372
2016-07-15T17:53:55.011Z,368
2016-07-15T17:57:08.394Z,368
2016-07-15T18:00:18.600Z,420
2016-07-15T18:03:31.914Z,367
2016-07-15T18:06:51.440Z,339
2016-07-15T18:09:53.951Z,291
2016-07-15T18:13:07.413Z,260
2016-07-15T18:16:20.742Z,227
2016-07-15T18:19:33.805Z,204
2016-07-15T18:22:52.976Z,201
2016-07-15T18:25:55.463Z,182
2016-07-15T18:29:08.965Z,165
2016-07-15T18:32:22.356Z,170
2016-07-15T18:35:35.616Z,161
2016-07-15T18:38:54.877Z,76
2016-07-15T18:41:57.625Z,125
2016-07-15T18:45:10.539Z,95
2016-07-15T18:48:24.060Z,74
2016-07-15T18:51:35.314Z,69
2016-07-15T18:54:54.629Z,73
2016-07-15T18:57:57.259Z,69
2016-07-15T19:01:10.694Z,67
2016-07-15T19:04:24.019Z,60
2016-07-15T19:07:37.437Z,53
2016-07-15T19:10:56.787Z,46
2016-07-15T19:13:59.226Z,44
2016-07-15T19:17:12.703Z,40
2016-07-15T19:20:25.906Z,34
2016-07-15T19:23:39.194Z,30
2016-07-15T19:26:52.597Z,22
2016-07-15T19:30:05.865Z,18
2016-07-15T19:33:19.371Z,13
2016-07-15T19:36:32.537Z,10
2016-07-15T19:39:51.766Z,7
2016-07-15T19:42:54.244Z,5
2016-07-15T19:46:04.890Z,3
2016-07-15T19:49:18.313Z,2
2016-07-15T19:52:31.470Z,2
2016-07-15T19:55:50.650Z,1
2016-07-15T19:58:53.193Z,0
2016-07-15T20:02:06.548Z,0
2016-07-15T20:05:19.943Z,1
2016-07-15T20:08:33.371Z,0
2016-07-15T20:11:52.736Z,0
2016-07-15T20:14:55.261Z,0
2016-07-15T20:18:08.167Z,0
2016-07-15T20:21:21.712Z,0
2016-07-15T20:24:35.199Z,0
2016-07-15T20:27:54.302Z,0
2016-07-15T20:30:56.875Z,0
2016-07-15T20:34:10.329Z,0
2016-07-15T20:37:23.201Z,0
2016-07-15T20:40:36.671Z,0
2016-07-15T20:43:56.035Z,0
2016-07-15T20:46:58.529Z,0
2016-07-15T20:50:11.787Z,0
2016-07-15T20:53:25.020Z,0
2016-07-15T20:56:38.451Z,0
2016-07-15T20:59:51.520Z,0
2016-07-15T21:03:04.735Z,0
2016-07-15T21:06:18.177Z,0
2016-07-15T21:09:31.484Z,0
2016-07-15T21:15:53.039Z,0
2016-07-15T21:19:05.953Z,0
2016-07-15T21:22:17.250Z,0
2016-07-15T21:25:30.625Z,0
2016-07-15T21:28:49.665Z,0
2016-07-15T21:31:51.977Z,0
2016-07-15T21:35:05.368Z,0
2016-07-15T21:38:18.509Z,0
2016-07-15T21:41:31.683Z,0
2016-07-15T21:44:50.844Z,0
2016-07-15T21:47:53.190Z,0
2016-07-15T21:51:06.600Z,0
2016-07-15T21:54:19.971Z,0
2016-07-15T21:57:32.182Z,0
2016-07-15T22:00:51.520Z,0
2016-07-15T22:03:53.974Z,0
2016-07-15T22:07:07.325Z,0
2016-07-15T22:10:20.645Z,0
2016-07-15T22:13:33.764Z,0
2016-07-15T22:16:53.291Z,0
2016-07-15T22:19:55.842Z,0
2016-07-15T22:23:09.374Z,0
2016-07-15T22:26:22.720Z,0
2016-07-15T22:29:36.005Z,0
2016-07-15T22:32:55.292Z,0
2016-07-15T22:35:57.740Z,0
2016-07-15T22:39:11.107Z,0
2016-07-15T22:42:24.252Z,0
2016-07-15T22:45:37.666Z,0
2016-07-15T22:48:56.534Z,0
2016-07-15T22:51:58.983Z,0
2016-07-15T22:55:12.119Z,0
2016-07-15T22:58:25.466Z,0
2016-07-15T23:01:38.811Z,0
2016-07-15T23:04:52.140Z,0
2016-07-15T23:08:05.480Z,0
2016-07-15T23:11:18.932Z,0
2016-07-15T23:14:32.019Z,0
2016-07-15T23:17:50.822Z,0
2016-07-15T23:20:53.448Z,0
2016-07-15T23:24:06.116Z,0
2016-07-15T23:27:19.349Z,0
2016-07-15T23:30:32.477Z,0
2016-07-15T23:33:51.281Z,0
2016-07-15T23:36:53.590Z,0
2016-07-15T23:40:06.799Z,0
2016-07-15T23:43:20.015Z,0
2016-07-15T23:46:33.038Z,0
2016-07-15T23:49:52.242Z,0
2016-07-15T23:52:54.576Z,0
2016-07-15T23:56:07.840Z,0
2016-07-15T23:59:21.076Z,0
